sensor_id;sensor_type;location;lat;lon;timestamp;P1;durP1;ratioP1;P2;durP2;ratioP2
8540;SDS011;4308;51.294;6.590;2023-02-01T00:01:26;18.47;;;7.37;;
8540;SDS011;4308;51.294;6.590;2023-02-01T00:03:54;13.93;;;7.10;;
8540;SDS011;4308;51.294;6.590;2023-02-01T00:06:22;17.97;;;7.67;;
8540;SDS011;4308;51.294;6.590;2023-02-01T00:08:52;16.73;;;6.97;;
8540;SDS011;4308;51.294;6.590;2023-02-01T00:11:19;16.10;;;7.27;;
8540;SDS011;4308;51.294;6.590;2023-02-01T00:13:47;14.40;;;7.13;;
8540;SDS011;4308;51.294;6.590;2023-02-01T00:16:22;19.13;;;7.00;;
8540;SDS011;4308;51.294;6.590;2023-02-01T00:18:50;21.07;;;8.10;;
8540;SDS011;4308;51.294;6.590;2023-02-01T00:21:19;14.63;;;7.50;;
8540;SDS011;4308;51.294;6.590;2023-02-01T00:23:47;16.37;;;7.10;;
8540;SDS011;4308;51.294;6.590;2023-02-01T00:26:19;14.53;;;7.80;;
8540;SDS011;4308;51.294;6.590;2023-02-01T00:28:47;15.40;;;7.57;;
8540;SDS011;4308;51.294;6.590;2023-02-01T00:31:14;19.33;;;8.47;;
8540;SDS011;4308;51.294;6.590;2023-02-01T00:33:42;18.00;;;8.27;;
8540;SDS011;4308;51.294;6.590;2023-02-01T00:36:10;16.77;;;8.13;;
8540;SDS011;4308;51.294;6.590;2023-02-01T00:38:37;17.90;;;8.60;;
8540;SDS011;4308;51.294;6.590;2023-02-01T00:41:12;18.80;;;9.10;;
8540;SDS011;4308;51.294;6.590;2023-02-01T00:43:40;18.43;;;7.77;;
8540;SDS011;4308;51.294;6.590;2023-02-01T00:46:08;17.03;;;8.27;;
8540;SDS011;4308;51.294;6.590;2023-02-01T00:48:36;19.30;;;7.50;;
8540;SDS011;4308;51.294;6.590;2023-02-01T00:51:13;23.17;;;7.93;;
8540;SDS011;4308;51.294;6.590;2023-02-01T00:53:41;15.47;;;6.63;;
8540;SDS011;4308;51.294;6.590;2023-02-01T00:56:09;19.97;;;6.97;;
8540;SDS011;4308;51.294;6.590;2023-02-01T00:58:36;13.23;;;6.90;;
8540;SDS011;4308;51.294;6.590;2023-02-01T01:03:35;16.83;;;6.40;;
8540;SDS011;4308;51.294;6.590;2023-02-01T01:06:05;20.53;;;6.30;;
8540;SDS011;4308;51.294;6.590;2023-02-01T01:08:33;18.27;;;6.40;;
8540;SDS011;4308;51.294;6.590;2023-02-01T01:11:04;20.63;;;6.43;;
8540;SDS011;4308;51.294;6.590;2023-02-01T01:13:32;18.03;;;6.63;;
8540;SDS011;4308;51.294;6.590;2023-02-01T01:16:01;20.10;;;6.23;;
8540;SDS011;4308;51.294;6.590;2023-02-01T01:18:29;18.37;;;5.53;;
8540;SDS011;4308;51.294;6.590;2023-02-01T01:20:57;23.07;;;6.93;;
8540;SDS011;4308;51.294;6.590;2023-02-01T01:23:25;20.50;;;5.37;;
8540;SDS011;4308;51.294;6.590;2023-02-01T01:25:53;19.80;;;5.30;;
8540;SDS011;4308;51.294;6.590;2023-02-01T01:28:21;13.57;;;5.60;;
8540;SDS011;4308;51.294;6.590;2023-02-01T01:30:48;15.67;;;4.60;;
8540;SDS011;4308;51.294;6.590;2023-02-01T01:33:16;11.67;;;4.90;;
8540;SDS011;4308;51.294;6.590;2023-02-01T01:35:44;16.33;;;5.00;;
8540;SDS011;4308;51.294;6.590;2023-02-01T01:38:11;14.33;;;5.00;;
8540;SDS011;4308;51.294;6.590;2023-02-01T01:40:39;13.50;;;4.40;;
8540;SDS011;4308;51.294;6.590;2023-02-01T01:43:11;16.80;;;4.30;;
8540;SDS011;4308;51.294;6.590;2023-02-01T01:45:40;13.77;;;3.80;;
8540;SDS011;4308;51.294;6.590;2023-02-01T01:50:35;13.83;;;3.83;;
8540;SDS011;4308;51.294;6.590;2023-02-01T01:53:05;14.87;;;4.50;;
8540;SDS011;4308;51.294;6.590;2023-02-01T01:55:36;9.63;;;4.10;;
8540;SDS011;4308;51.294;6.590;2023-02-01T01:58:05;18.77;;;4.53;;
8540;SDS011;4308;51.294;6.590;2023-02-01T02:00:34;8.83;;;3.57;;
8540;SDS011;4308;51.294;6.590;2023-02-01T02:03:13;19.43;;;4.43;;
8540;SDS011;4308;51.294;6.590;2023-02-01T02:05:42;15.00;;;4.27;;
8540;SDS011;4308;51.294;6.590;2023-02-01T02:08:10;19.57;;;4.13;;
8540;SDS011;4308;51.294;6.590;2023-02-01T02:10:38;18.17;;;5.30;;
8540;SDS011;4308;51.294;6.590;2023-02-01T02:13:06;21.03;;;3.97;;
8540;SDS011;4308;51.294;6.590;2023-02-01T02:15:34;13.50;;;4.27;;
8540;SDS011;4308;51.294;6.590;2023-02-01T02:18:05;15.93;;;4.77;;
8540;SDS011;4308;51.294;6.590;2023-02-01T02:26:34;14.07;;;4.67;;
8540;SDS011;4308;51.294;6.590;2023-02-01T02:31:58;10.07;;;3.80;;
8540;SDS011;4308;51.294;6.590;2023-02-01T02:34:40;13.40;;;3.97;;
8540;SDS011;4308;51.294;6.590;2023-02-01T02:42:39;17.20;;;4.27;;
8540;SDS011;4308;51.294;6.590;2023-02-01T02:45:13;17.63;;;4.67;;
8540;SDS011;4308;51.294;6.590;2023-02-01T02:50:46;17.83;;;4.47;;
8540;SDS011;4308;51.294;6.590;2023-02-01T02:53:08;11.77;;;4.03;;
8540;SDS011;4308;51.294;6.590;2023-02-01T02:55:37;16.77;;;4.17;;
8540;SDS011;4308;51.294;6.590;2023-02-01T02:58:05;17.00;;;4.20;;
8540;SDS011;4308;51.294;6.590;2023-02-01T03:00:34;19.60;;;4.67;;
8540;SDS011;4308;51.294;6.590;2023-02-01T03:03:02;11.00;;;3.80;;
8540;SDS011;4308;51.294;6.590;2023-02-01T03:05:34;17.93;;;4.87;;
8540;SDS011;4308;51.294;6.590;2023-02-01T03:08:10;16.00;;;4.13;;
8540;SDS011;4308;51.294;6.590;2023-02-01T03:10:40;15.93;;;4.57;;
8540;SDS011;4308;51.294;6.590;2023-02-01T03:13:18;17.83;;;4.33;;
8540;SDS011;4308;51.294;6.590;2023-02-01T03:18:38;17.47;;;4.57;;
8540;SDS011;4308;51.294;6.590;2023-02-01T03:21:06;16.57;;;5.03;;
8540;SDS011;4308;51.294;6.590;2023-02-01T03:23:35;14.27;;;4.27;;
8540;SDS011;4308;51.294;6.590;2023-02-01T03:26:03;18.57;;;4.73;;
8540;SDS011;4308;51.294;6.590;2023-02-01T03:28:32;16.90;;;4.20;;
8540;SDS011;4308;51.294;6.590;2023-02-01T03:31:01;17.80;;;5.13;;
8540;SDS011;4308;51.294;6.590;2023-02-01T03:33:29;12.13;;;3.90;;
8540;SDS011;4308;51.294;6.590;2023-02-01T03:38:37;16.63;;;5.27;;
8540;SDS011;4308;51.294;6.590;2023-02-01T03:41:10;17.87;;;4.67;;
8540;SDS011;4308;51.294;6.590;2023-02-01T03:44:01;17.27;;;4.93;;
8540;SDS011;4308;51.294;6.590;2023-02-01T03:46:30;14.37;;;3.73;;
8540;SDS011;4308;51.294;6.590;2023-02-01T03:49:02;15.07;;;5.27;;
8540;SDS011;4308;51.294;6.590;2023-02-01T03:51:30;20.40;;;5.70;;
8540;SDS011;4308;51.294;6.590;2023-02-01T03:53:59;20.83;;;4.20;;
8540;SDS011;4308;51.294;6.590;2023-02-01T03:56:29;14.10;;;3.70;;
8540;SDS011;4308;51.294;6.590;2023-02-01T03:58:57;14.27;;;3.47;;
8540;SDS011;4308;51.294;6.590;2023-02-01T04:01:28;18.43;;;5.03;;
8540;SDS011;4308;51.294;6.590;2023-02-01T04:03:56;17.00;;;4.20;;
8540;SDS011;4308;51.294;6.590;2023-02-01T04:06:24;22.73;;;4.90;;
8540;SDS011;4308;51.294;6.590;2023-02-01T04:08:52;16.50;;;3.90;;
8540;SDS011;4308;51.294;6.590;2023-02-01T04:11:19;17.20;;;4.07;;
8540;SDS011;4308;51.294;6.590;2023-02-01T04:13:47;16.13;;;4.60;;
8540;SDS011;4308;51.294;6.590;2023-02-01T04:16:15;19.73;;;4.77;;
8540;SDS011;4308;51.294;6.590;2023-02-01T04:18:42;21.87;;;4.43;;
8540;SDS011;4308;51.294;6.590;2023-02-01T04:21:10;19.03;;;4.67;;
8540;SDS011;4308;51.294;6.590;2023-02-01T04:23:37;16.73;;;3.87;;
8540;SDS011;4308;51.294;6.590;2023-02-01T04:26:05;19.17;;;4.50;;
8540;SDS011;4308;51.294;6.590;2023-02-01T04:28:32;18.57;;;4.43;;
8540;SDS011;4308;51.294;6.590;2023-02-01T04:31:00;20.70;;;4.30;;
8540;SDS011;4308;51.294;6.590;2023-02-01T04:33:28;18.47;;;4.33;;
8540;SDS011;4308;51.294;6.590;2023-02-01T04:35:55;15.47;;;4.03;;
8540;SDS011;4308;51.294;6.590;2023-02-01T04:38:23;14.40;;;3.80;;
8540;SDS011;4308;51.294;6.590;2023-02-01T04:40:50;22.33;;;5.43;;
8540;SDS011;4308;51.294;6.590;2023-02-01T04:43:18;19.70;;;5.13;;
8540;SDS011;4308;51.294;6.590;2023-02-01T04:45:49;13.07;;;4.17;;
8540;SDS011;4308;51.294;6.590;2023-02-01T04:48:17;21.37;;;4.20;;
8540;SDS011;4308;51.294;6.590;2023-02-01T04:50:45;17.17;;;4.00;;
8540;SDS011;4308;51.294;6.590;2023-02-01T04:53:16;18.00;;;4.20;;
8540;SDS011;4308;51.294;6.590;2023-02-01T04:55:44;23.80;;;4.50;;
8540;SDS011;4308;51.294;6.590;2023-02-01T04:58:11;11.50;;;4.23;;
8540;SDS011;4308;51.294;6.590;2023-02-01T05:00:39;23.10;;;4.60;;
8540;SDS011;4308;51.294;6.590;2023-02-01T05:03:06;15.23;;;3.73;;
8540;SDS011;4308;51.294;6.590;2023-02-01T05:05:34;12.27;;;4.03;;
8540;SDS011;4308;51.294;6.590;2023-02-01T05:08:01;15.23;;;4.43;;
8540;SDS011;4308;51.294;6.590;2023-02-01T05:10:29;18.73;;;3.37;;
8540;SDS011;4308;51.294;6.590;2023-02-01T05:12:57;18.73;;;4.60;;
8540;SDS011;4308;51.294;6.590;2023-02-01T05:15:24;23.37;;;3.47;;
8540;SDS011;4308;51.294;6.590;2023-02-01T05:17:52;17.10;;;3.57;;
8540;SDS011;4308;51.294;6.590;2023-02-01T05:20:19;21.60;;;5.10;;
8540;SDS011;4308;51.294;6.590;2023-02-01T05:22:47;22.37;;;4.80;;
8540;SDS011;4308;51.294;6.590;2023-02-01T05:25:15;16.63;;;4.17;;
8540;SDS011;4308;51.294;6.590;2023-02-01T05:27:42;13.80;;;3.87;;
8540;SDS011;4308;51.294;6.590;2023-02-01T05:30:10;12.30;;;3.17;;
8540;SDS011;4308;51.294;6.590;2023-02-01T05:32:38;13.53;;;3.77;;
8540;SDS011;4308;51.294;6.590;2023-02-01T05:35:06;15.67;;;4.10;;
8540;SDS011;4308;51.294;6.590;2023-02-01T05:37:33;20.30;;;4.50;;
8540;SDS011;4308;51.294;6.590;2023-02-01T05:40:01;22.10;;;5.00;;
8540;SDS011;4308;51.294;6.590;2023-02-01T05:42:28;18.13;;;3.87;;
8540;SDS011;4308;51.294;6.590;2023-02-01T05:44:56;17.77;;;4.10;;
8540;SDS011;4308;51.294;6.590;2023-02-01T05:47:23;17.50;;;3.83;;
8540;SDS011;4308;51.294;6.590;2023-02-01T05:49:51;21.60;;;4.80;;
8540;SDS011;4308;51.294;6.590;2023-02-01T05:52:18;9.97;;;3.60;;
8540;SDS011;4308;51.294;6.590;2023-02-01T05:54:47;23.30;;;4.40;;
8540;SDS011;4308;51.294;6.590;2023-02-01T05:57:14;15.17;;;3.97;;
8540;SDS011;4308;51.294;6.590;2023-02-01T05:59:42;21.23;;;4.67;;
8540;SDS011;4308;51.294;6.590;2023-02-01T06:02:10;20.93;;;4.17;;
8540;SDS011;4308;51.294;6.590;2023-02-01T06:04:38;20.20;;;3.73;;
8540;SDS011;4308;51.294;6.590;2023-02-01T06:07:06;17.27;;;4.80;;
8540;SDS011;4308;51.294;6.590;2023-02-01T06:09:34;13.47;;;3.80;;
8540;SDS011;4308;51.294;6.590;2023-02-01T06:12:02;16.70;;;4.43;;
8540;SDS011;4308;51.294;6.590;2023-02-01T06:14:30;23.70;;;3.83;;
8540;SDS011;4308;51.294;6.590;2023-02-01T06:16:57;20.23;;;3.73;;
8540;SDS011;4308;51.294;6.590;2023-02-01T06:19:25;19.13;;;4.43;;
8540;SDS011;4308;51.294;6.590;2023-02-01T06:21:52;16.27;;;4.17;;
8540;SDS011;4308;51.294;6.590;2023-02-01T06:24:20;18.47;;;3.93;;
8540;SDS011;4308;51.294;6.590;2023-02-01T06:26:47;26.27;;;4.77;;
8540;SDS011;4308;51.294;6.590;2023-02-01T06:29:15;21.60;;;4.87;;
8540;SDS011;4308;51.294;6.590;2023-02-01T06:31:42;18.80;;;4.23;;
8540;SDS011;4308;51.294;6.590;2023-02-01T06:34:10;20.53;;;4.70;;
8540;SDS011;4308;51.294;6.590;2023-02-01T06:36:38;25.10;;;5.37;;
8540;SDS011;4308;51.294;6.590;2023-02-01T06:39:05;29.23;;;4.83;;
8540;SDS011;4308;51.294;6.590;2023-02-01T06:41:33;17.87;;;4.77;;
8540;SDS011;4308;51.294;6.590;2023-02-01T06:44:00;18.80;;;3.50;;
8540;SDS011;4308;51.294;6.590;2023-02-01T06:46:28;28.77;;;4.90;;
8540;SDS011;4308;51.294;6.590;2023-02-01T06:48:55;19.03;;;4.27;;
8540;SDS011;4308;51.294;6.590;2023-02-01T06:51:26;19.50;;;3.47;;
8540;SDS011;4308;51.294;6.590;2023-02-01T06:53:55;16.63;;;3.93;;
8540;SDS011;4308;51.294;6.590;2023-02-01T06:56:22;18.77;;;5.03;;
8540;SDS011;4308;51.294;6.590;2023-02-01T06:58:50;22.57;;;4.43;;
8540;SDS011;4308;51.294;6.590;2023-02-01T07:01:17;23.50;;;4.73;;
8540;SDS011;4308;51.294;6.590;2023-02-01T07:03:49;19.73;;;4.00;;
8540;SDS011;4308;51.294;6.590;2023-02-01T07:06:17;21.40;;;4.43;;
8540;SDS011;4308;51.294;6.590;2023-02-01T07:08:45;16.13;;;3.97;;
8540;SDS011;4308;51.294;6.590;2023-02-01T07:11:13;19.37;;;5.40;;
8540;SDS011;4308;51.294;6.590;2023-02-01T07:13:41;15.40;;;4.73;;
8540;SDS011;4308;51.294;6.590;2023-02-01T07:16:18;14.97;;;3.77;;
8540;SDS011;4308;51.294;6.590;2023-02-01T07:18:46;22.33;;;5.23;;
8540;SDS011;4308;51.294;6.590;2023-02-01T07:21:14;22.07;;;4.83;;
8540;SDS011;4308;51.294;6.590;2023-02-01T07:23:41;21.87;;;4.57;;
8540;SDS011;4308;51.294;6.590;2023-02-01T07:26:10;16.17;;;4.93;;
8540;SDS011;4308;51.294;6.590;2023-02-01T07:28:38;20.03;;;3.63;;
8540;SDS011;4308;51.294;6.590;2023-02-01T07:31:09;22.43;;;4.80;;
8540;SDS011;4308;51.294;6.590;2023-02-01T07:33:37;16.03;;;3.93;;
8540;SDS011;4308;51.294;6.590;2023-02-01T07:36:05;19.83;;;4.73;;
8540;SDS011;4308;51.294;6.590;2023-02-01T07:38:33;20.27;;;5.27;;
8540;SDS011;4308;51.294;6.590;2023-02-01T07:41:02;20.63;;;4.47;;
8540;SDS011;4308;51.294;6.590;2023-02-01T07:43:30;24.97;;;6.00;;
8540;SDS011;4308;51.294;6.590;2023-02-01T07:45:58;19.30;;;5.03;;
8540;SDS011;4308;51.294;6.590;2023-02-01T07:48:26;19.00;;;4.57;;
8540;SDS011;4308;51.294;6.590;2023-02-01T07:51:01;19.87;;;4.90;;
8540;SDS011;4308;51.294;6.590;2023-02-01T07:53:30;25.70;;;4.97;;
8540;SDS011;4308;51.294;6.590;2023-02-01T07:55:57;17.47;;;4.17;;
8540;SDS011;4308;51.294;6.590;2023-02-01T07:58:25;20.77;;;5.00;;
8540;SDS011;4308;51.294;6.590;2023-02-01T08:00:53;17.87;;;4.40;;
8540;SDS011;4308;51.294;6.590;2023-02-01T08:03:21;21.47;;;4.40;;
8540;SDS011;4308;51.294;6.590;2023-02-01T08:05:48;14.73;;;4.37;;
8540;SDS011;4308;51.294;6.590;2023-02-01T08:08:20;23.83;;;4.90;;
8540;SDS011;4308;51.294;6.590;2023-02-01T08:10:48;18.73;;;5.63;;
8540;SDS011;4308;51.294;6.590;2023-02-01T08:13:16;19.77;;;4.20;;
8540;SDS011;4308;51.294;6.590;2023-02-01T08:15:43;20.50;;;4.23;;
8540;SDS011;4308;51.294;6.590;2023-02-01T08:18:11;21.93;;;3.87;;
8540;SDS011;4308;51.294;6.590;2023-02-01T08:20:38;21.83;;;4.43;;
8540;SDS011;4308;51.294;6.590;2023-02-01T08:23:07;26.43;;;4.50;;
8540;SDS011;4308;51.294;6.590;2023-02-01T08:25:34;20.57;;;4.43;;
8540;SDS011;4308;51.294;6.590;2023-02-01T08:28:02;16.53;;;4.20;;
8540;SDS011;4308;51.294;6.590;2023-02-01T08:30:30;22.00;;;5.00;;
8540;SDS011;4308;51.294;6.590;2023-02-01T08:32:57;18.37;;;3.73;;
8540;SDS011;4308;51.294;6.590;2023-02-01T08:35:25;19.30;;;4.97;;
8540;SDS011;4308;51.294;6.590;2023-02-01T08:38:08;18.57;;;4.13;;
8540;SDS011;4308;51.294;6.590;2023-02-01T08:40:36;19.80;;;4.07;;
8540;SDS011;4308;51.294;6.590;2023-02-01T08:43:03;16.83;;;4.20;;
8540;SDS011;4308;51.294;6.590;2023-02-01T08:45:31;18.80;;;3.63;;
8540;SDS011;4308;51.294;6.590;2023-02-01T08:47:59;21.63;;;3.90;;
8540;SDS011;4308;51.294;6.590;2023-02-01T08:50:27;18.77;;;4.47;;
8540;SDS011;4308;51.294;6.590;2023-02-01T08:52:54;20.83;;;4.40;;
8540;SDS011;4308;51.294;6.590;2023-02-01T08:55:22;17.83;;;4.30;;
8540;SDS011;4308;51.294;6.590;2023-02-01T08:57:49;24.67;;;5.00;;
8540;SDS011;4308;51.294;6.590;2023-02-01T09:00:17;24.03;;;5.07;;
8540;SDS011;4308;51.294;6.590;2023-02-01T09:02:45;25.63;;;4.43;;
8540;SDS011;4308;51.294;6.590;2023-02-01T09:05:12;20.17;;;4.43;;
8540;SDS011;4308;51.294;6.590;2023-02-01T09:07:40;14.07;;;4.00;;
8540;SDS011;4308;51.294;6.590;2023-02-01T09:10:08;15.30;;;4.53;;
8540;SDS011;4308;51.294;6.590;2023-02-01T09:12:35;13.50;;;3.67;;
8540;SDS011;4308;51.294;6.590;2023-02-01T09:15:03;20.17;;;4.60;;
8540;SDS011;4308;51.294;6.590;2023-02-01T09:17:31;17.50;;;4.67;;
8540;SDS011;4308;51.294;6.590;2023-02-01T09:19:58;19.80;;;4.70;;
8540;SDS011;4308;51.294;6.590;2023-02-01T09:22:26;12.00;;;3.80;;
8540;SDS011;4308;51.294;6.590;2023-02-01T09:24:53;15.03;;;3.67;;
8540;SDS011;4308;51.294;6.590;2023-02-01T09:27:21;19.53;;;4.20;;
8540;SDS011;4308;51.294;6.590;2023-02-01T09:29:49;19.50;;;4.03;;
8540;SDS011;4308;51.294;6.590;2023-02-01T09:32:16;18.10;;;4.50;;
8540;SDS011;4308;51.294;6.590;2023-02-01T09:34:44;18.77;;;5.03;;
8540;SDS011;4308;51.294;6.590;2023-02-01T09:37:12;17.17;;;4.57;;
8540;SDS011;4308;51.294;6.590;2023-02-01T09:39:39;23.93;;;4.50;;
8540;SDS011;4308;51.294;6.590;2023-02-01T09:47:11;25.70;;;4.30;;
8540;SDS011;4308;51.294;6.590;2023-02-01T09:49:40;17.53;;;4.40;;
8540;SDS011;4308;51.294;6.590;2023-02-01T09:52:12;20.43;;;5.03;;
8540;SDS011;4308;51.294;6.590;2023-02-01T09:54:41;13.30;;;3.67;;
8540;SDS011;4308;51.294;6.590;2023-02-01T09:57:13;20.70;;;4.30;;
8540;SDS011;4308;51.294;6.590;2023-02-01T09:59:49;12.83;;;4.77;;
8540;SDS011;4308;51.294;6.590;2023-02-01T10:02:28;15.73;;;5.07;;
8540;SDS011;4308;51.294;6.590;2023-02-01T10:04:57;16.37;;;3.63;;
8540;SDS011;4308;51.294;6.590;2023-02-01T10:10:09;18.33;;;4.27;;
8540;SDS011;4308;51.294;6.590;2023-02-01T10:25:44;16.13;;;4.40;;
8540;SDS011;4308;51.294;6.590;2023-02-01T10:28:20;18.53;;;4.90;;
8540;SDS011;4308;51.294;6.590;2023-02-01T10:30:49;20.80;;;3.90;;
8540;SDS011;4308;51.294;6.590;2023-02-01T10:33:27;13.17;;;3.40;;
8540;SDS011;4308;51.294;6.590;2023-02-01T10:36:16;19.53;;;4.37;;
8540;SDS011;4308;51.294;6.590;2023-02-01T10:38:45;16.97;;;4.40;;
8540;SDS011;4308;51.294;6.590;2023-02-01T10:41:15;17.03;;;4.17;;
8540;SDS011;4308;51.294;6.590;2023-02-01T10:43:43;16.17;;;4.10;;
8540;SDS011;4308;51.294;6.590;2023-02-01T10:46:11;20.40;;;4.63;;
8540;SDS011;4308;51.294;6.590;2023-02-01T10:48:39;16.83;;;4.37;;
8540;SDS011;4308;51.294;6.590;2023-02-01T10:51:11;16.23;;;3.80;;
8540;SDS011;4308;51.294;6.590;2023-02-01T10:53:48;13.17;;;3.70;;
8540;SDS011;4308;51.294;6.590;2023-02-01T10:56:21;18.43;;;4.57;;
8540;SDS011;4308;51.294;6.590;2023-02-01T10:58:49;17.37;;;4.53;;
8540;SDS011;4308;51.294;6.590;2023-02-01T11:01:20;14.13;;;4.57;;
8540;SDS011;4308;51.294;6.590;2023-02-01T11:08:56;10.33;;;3.93;;
8540;SDS011;4308;51.294;6.590;2023-02-01T11:11:24;20.67;;;4.13;;
8540;SDS011;4308;51.294;6.590;2023-02-01T11:13:56;13.50;;;4.03;;
8540;SDS011;4308;51.294;6.590;2023-02-01T11:16:47;12.60;;;3.07;;
8540;SDS011;4308;51.294;6.590;2023-02-01T11:19:16;17.17;;;4.10;;
8540;SDS011;4308;51.294;6.590;2023-02-01T11:21:44;16.77;;;4.30;;
8540;SDS011;4308;51.294;6.590;2023-02-01T11:24:36;11.93;;;3.50;;
8540;SDS011;4308;51.294;6.590;2023-02-01T11:27:00;11.73;;;4.27;;
8540;SDS011;4308;51.294;6.590;2023-02-01T11:29:50;15.10;;;3.87;;
8540;SDS011;4308;51.294;6.590;2023-02-01T11:32:19;15.33;;;3.80;;
8540;SDS011;4308;51.294;6.590;2023-02-01T11:35:01;18.43;;;4.17;;
8540;SDS011;4308;51.294;6.590;2023-02-01T11:37:31;11.17;;;3.80;;
8540;SDS011;4308;51.294;6.590;2023-02-01T11:40:00;14.57;;;4.17;;
8540;SDS011;4308;51.294;6.590;2023-02-01T11:42:28;21.10;;;4.67;;
8540;SDS011;4308;51.294;6.590;2023-02-01T11:47:42;15.00;;;5.17;;
8540;SDS011;4308;51.294;6.590;2023-02-01T11:50:18;13.67;;;4.50;;
8540;SDS011;4308;51.294;6.590;2023-02-01T11:55:59;12.90;;;3.73;;
8540;SDS011;4308;51.294;6.590;2023-02-01T12:01:07;10.90;;;4.03;;
8540;SDS011;4308;51.294;6.590;2023-02-01T12:06:28;16.53;;;4.23;;
8540;SDS011;4308;51.294;6.590;2023-02-01T12:09:07;17.57;;;4.43;;
8540;SDS011;4308;51.294;6.590;2023-02-01T12:11:52;16.13;;;4.17;;
8540;SDS011;4308;51.294;6.590;2023-02-01T12:22:08;14.77;;;4.70;;
8540;SDS011;4308;51.294;6.590;2023-02-01T12:35:09;16.57;;;4.70;;
8540;SDS011;4308;51.294;6.590;2023-02-01T12:42:43;13.83;;;4.00;;
8540;SDS011;4308;51.294;6.590;2023-02-01T12:50:50;14.80;;;4.03;;
8540;SDS011;4308;51.294;6.590;2023-02-01T12:53:21;15.30;;;4.00;;
8540;SDS011;4308;51.294;6.590;2023-02-01T12:55:50;14.67;;;3.50;;
8540;SDS011;4308;51.294;6.590;2023-02-01T12:58:24;16.37;;;3.50;;
8540;SDS011;4308;51.294;6.590;2023-02-01T13:00:59;13.93;;;3.40;;
8540;SDS011;4308;51.294;6.590;2023-02-01T13:08:56;13.70;;;3.03;;
8540;SDS011;4308;51.294;6.590;2023-02-01T13:11:29;11.30;;;2.87;;
8540;SDS011;4308;51.294;6.590;2023-02-01T13:16:45;10.07;;;2.37;;
8540;SDS011;4308;51.294;6.590;2023-02-01T13:19:20;11.30;;;2.87;;
8540;SDS011;4308;51.294;6.590;2023-02-01T13:21:51;13.33;;;3.17;;
8540;SDS011;4308;51.294;6.590;2023-02-01T13:24:42;14.83;;;3.90;;
8540;SDS011;4308;51.294;6.590;2023-02-01T13:27:14;13.17;;;3.23;;
8540;SDS011;4308;51.294;6.590;2023-02-01T13:43:22;10.40;;;2.57;;
8540;SDS011;4308;51.294;6.590;2023-02-01T13:45:52;13.63;;;3.20;;
8540;SDS011;4308;51.294;6.590;2023-02-01T13:48:28;11.60;;;2.40;;
8540;SDS011;4308;51.294;6.590;2023-02-01T13:50:57;9.77;;;3.33;;
8540;SDS011;4308;51.294;6.590;2023-02-01T13:53:29;12.13;;;2.67;;
8540;SDS011;4308;51.294;6.590;2023-02-01T13:56:01;14.00;;;2.73;;
8540;SDS011;4308;51.294;6.590;2023-02-01T14:01:40;14.47;;;3.20;;
8540;SDS011;4308;51.294;6.590;2023-02-01T14:03:49;9.30;;;3.10;;
8540;SDS011;4308;51.294;6.590;2023-02-01T14:09:12;11.77;;;2.70;;
8540;SDS011;4308;51.294;6.590;2023-02-01T14:11:43;12.27;;;2.63;;
8540;SDS011;4308;51.294;6.590;2023-02-01T14:19:32;14.60;;;3.33;;
8540;SDS011;4308;51.294;6.590;2023-02-01T14:22:01;11.33;;;2.73;;
8540;SDS011;4308;51.294;6.590;2023-02-01T14:24:51;12.50;;;3.50;;
8540;SDS011;4308;51.294;6.590;2023-02-01T14:27:23;16.27;;;3.83;;
8540;SDS011;4308;51.294;6.590;2023-02-01T14:29:52;10.60;;;2.50;;
8540;SDS011;4308;51.294;6.590;2023-02-01T14:32:21;8.93;;;3.00;;
8540;SDS011;4308;51.294;6.590;2023-02-01T14:34:50;11.00;;;3.03;;
8540;SDS011;4308;51.294;6.590;2023-02-01T14:45:46;12.77;;;2.95;;
8540;SDS011;4308;51.294;6.590;2023-02-01T14:47:41;9.60;;;3.07;;
8540;SDS011;4308;51.294;6.590;2023-02-01T14:52:42;13.37;;;3.27;;
8540;SDS011;4308;51.294;6.590;2023-02-01T14:55:13;9.63;;;3.10;;
8540;SDS011;4308;51.294;6.590;2023-02-01T14:57:42;15.40;;;4.20;;
8540;SDS011;4308;51.294;6.590;2023-02-01T15:02:44;11.37;;;2.93;;
8540;SDS011;4308;51.294;6.590;2023-02-01T15:05:21;17.37;;;3.43;;
8540;SDS011;4308;51.294;6.590;2023-02-01T15:07:51;13.70;;;3.40;;
8540;SDS011;4308;51.294;6.590;2023-02-01T15:10:19;13.10;;;3.73;;
8540;SDS011;4308;51.294;6.590;2023-02-01T15:12:48;17.33;;;3.17;;
8540;SDS011;4308;51.294;6.590;2023-02-01T15:15:17;14.87;;;3.53;;
8540;SDS011;4308;51.294;6.590;2023-02-01T15:17:56;11.07;;;3.00;;
8540;SDS011;4308;51.294;6.590;2023-02-01T15:20:25;12.03;;;3.23;;
8540;SDS011;4308;51.294;6.590;2023-02-01T15:22:55;13.00;;;3.40;;
8540;SDS011;4308;51.294;6.590;2023-02-01T15:25:24;17.57;;;3.60;;
8540;SDS011;4308;51.294;6.590;2023-02-01T15:27:52;9.43;;;3.03;;
8540;SDS011;4308;51.294;6.590;2023-02-01T15:30:25;14.43;;;3.13;;
8540;SDS011;4308;51.294;6.590;2023-02-01T15:33:15;18.30;;;3.50;;
8540;SDS011;4308;51.294;6.590;2023-02-01T15:40:57;16.60;;;3.40;;
8540;SDS011;4308;51.294;6.590;2023-02-01T15:43:26;23.13;;;3.73;;
8540;SDS011;4308;51.294;6.590;2023-02-01T15:45:58;15.30;;;4.43;;
8540;SDS011;4308;51.294;6.590;2023-02-01T15:48:26;12.43;;;3.30;;
8540;SDS011;4308;51.294;6.590;2023-02-01T15:50:54;14.90;;;4.17;;
8540;SDS011;4308;51.294;6.590;2023-02-01T15:53:23;16.67;;;3.00;;
8540;SDS011;4308;51.294;6.590;2023-02-01T15:55:52;9.93;;;3.00;;
8540;SDS011;4308;51.294;6.590;2023-02-01T15:58:21;17.43;;;4.17;;
8540;SDS011;4308;51.294;6.590;2023-02-01T16:00:50;19.00;;;3.73;;
8540;SDS011;4308;51.294;6.590;2023-02-01T16:03:27;10.63;;;3.13;;
8540;SDS011;4308;51.294;6.590;2023-02-01T16:05:59;12.90;;;3.57;;
8540;SDS011;4308;51.294;6.590;2023-02-01T16:08:28;18.60;;;3.60;;
8540;SDS011;4308;51.294;6.590;2023-02-01T16:11:00;17.13;;;4.30;;
8540;SDS011;4308;51.294;6.590;2023-02-01T16:13:28;11.90;;;3.30;;
8540;SDS011;4308;51.294;6.590;2023-02-01T16:15:56;26.77;;;4.30;;
8540;SDS011;4308;51.294;6.590;2023-02-01T16:18:23;13.23;;;3.13;;
8540;SDS011;4308;51.294;6.590;2023-02-01T16:20:51;17.97;;;3.50;;
8540;SDS011;4308;51.294;6.590;2023-02-01T16:23:18;19.73;;;3.63;;
8540;SDS011;4308;51.294;6.590;2023-02-01T16:25:46;14.23;;;3.63;;
8540;SDS011;4308;51.294;6.590;2023-02-01T16:28:13;16.37;;;4.17;;
8540;SDS011;4308;51.294;6.590;2023-02-01T16:30:41;17.40;;;3.77;;
8540;SDS011;4308;51.294;6.590;2023-02-01T16:33:11;20.03;;;3.60;;
8540;SDS011;4308;51.294;6.590;2023-02-01T16:35:39;12.40;;;3.20;;
8540;SDS011;4308;51.294;6.590;2023-02-01T16:38:10;16.30;;;3.40;;
8540;SDS011;4308;51.294;6.590;2023-02-01T16:40:42;12.23;;;3.70;;
8540;SDS011;4308;51.294;6.590;2023-02-01T16:43:28;12.93;;;3.17;;
8540;SDS011;4308;51.294;6.590;2023-02-01T16:45:55;14.10;;;2.90;;
8540;SDS011;4308;51.294;6.590;2023-02-01T16:48:30;14.67;;;3.97;;
8540;SDS011;4308;51.294;6.590;2023-02-01T16:50:59;19.90;;;3.17;;
8540;SDS011;4308;51.294;6.590;2023-02-01T16:53:28;15.70;;;3.60;;
8540;SDS011;4308;51.294;6.590;2023-02-01T16:56:00;13.90;;;3.63;;
8540;SDS011;4308;51.294;6.590;2023-02-01T16:58:27;17.20;;;3.70;;
8540;SDS011;4308;51.294;6.590;2023-02-01T17:00:55;14.57;;;3.00;;
8540;SDS011;4308;51.294;6.590;2023-02-01T17:03:23;17.50;;;3.40;;
8540;SDS011;4308;51.294;6.590;2023-02-01T17:05:51;9.87;;;3.00;;
8540;SDS011;4308;51.294;6.590;2023-02-01T17:08:24;11.80;;;3.43;;
8540;SDS011;4308;51.294;6.590;2023-02-01T17:10:53;14.90;;;3.53;;
8540;SDS011;4308;51.294;6.590;2023-02-01T17:13:21;14.67;;;3.50;;
8540;SDS011;4308;51.294;6.590;2023-02-01T17:15:58;12.33;;;3.83;;
8540;SDS011;4308;51.294;6.590;2023-02-01T17:18:27;12.80;;;3.63;;
8540;SDS011;4308;51.294;6.590;2023-02-01T17:20:56;14.03;;;3.03;;
8540;SDS011;4308;51.294;6.590;2023-02-01T17:23:24;13.43;;;3.10;;
8540;SDS011;4308;51.294;6.590;2023-02-01T17:25:52;13.73;;;3.77;;
8540;SDS011;4308;51.294;6.590;2023-02-01T17:28:19;19.50;;;3.47;;
8540;SDS011;4308;51.294;6.590;2023-02-01T17:30:47;13.57;;;2.87;;
8540;SDS011;4308;51.294;6.590;2023-02-01T17:33:31;19.70;;;3.80;;
8540;SDS011;4308;51.294;6.590;2023-02-01T17:36:02;12.90;;;3.43;;
8540;SDS011;4308;51.294;6.590;2023-02-01T17:38:30;15.57;;;2.83;;
8540;SDS011;4308;51.294;6.590;2023-02-01T17:40:58;15.63;;;2.87;;
8540;SDS011;4308;51.294;6.590;2023-02-01T17:43:25;14.17;;;3.03;;